createdAt,value
2023-01-11T00:07:33.170Z,16.58
2023-01-11T00:22:35.108Z,20.95
2023-01-11T00:37:37.083Z,15.45
2023-01-11T00:52:39.064Z,14.60
2023-01-11T01:07:42.042Z,18.05
2023-01-11T01:22:44.011Z,12.68
2023-01-11T01:37:45.989Z,14.05
2023-01-11T01:52:51.774Z,12.82
2023-01-11T02:07:56.411Z,15.15
2023-01-11T02:23:01.300Z,16.23
2023-01-11T02:38:28.233Z,11.80
2023-01-11T02:53:32.972Z,11.05
2023-01-11T03:09:08.657Z,10.77
2023-01-11T03:24:16.360Z,13.73
2023-01-11T03:39:30.060Z,14.83
2023-01-11T03:54:33.814Z,15.30
2023-01-11T04:09:38.142Z,14.15
2023-01-11T04:24:40.213Z,18.67
2023-01-11T04:39:42.143Z,20.48
2023-01-11T04:54:44.568Z,13.07
2023-01-11T05:09:46.506Z,18.30
2023-01-11T05:24:48.452Z,11.00
2023-01-11T05:39:50.572Z,10.40
2023-01-11T05:54:52.629Z,10.05
2023-01-11T06:09:54.634Z,6.85
2023-01-11T06:24:57.097Z,10.38
2023-01-11T06:39:59.102Z,10.68
2023-01-11T06:55:01.265Z,8.98
2023-01-11T07:10:03.892Z,7.57
2023-01-11T07:25:06.845Z,6.05
2023-01-11T07:40:09.557Z,7.63
2023-01-11T07:55:11.526Z,5.35
2023-01-11T08:10:13.743Z,7.28
2023-01-11T08:25:16.242Z,7.40
2023-01-11T08:40:18.301Z,7.25
2023-01-11T08:55:20.357Z,8.68
2023-01-11T09:10:22.763Z,6.60
2023-01-11T09:25:24.876Z,6.07
2023-01-11T09:40:46.257Z,7.70
2023-01-11T09:55:52.288Z,10.75
2023-01-11T10:26:47.544Z,13.55
2023-01-11T10:42:03.993Z,12.18
2023-01-11T10:57:35.947Z,6.60
2023-01-11T11:12:44.211Z,4.85
2023-01-11T11:27:58.424Z,6.00
2023-01-11T11:43:22.001Z,7.80
2023-01-11T11:58:26.147Z,8.35
2023-01-11T12:13:34.763Z,5.40
2023-01-11T12:28:56.792Z,5.77
2023-01-11T12:44:05.141Z,7.50
2023-01-11T12:59:37.410Z,5.53
2023-01-11T13:14:51.645Z,5.57
2023-01-11T13:30:00.067Z,8.70
2023-01-11T13:45:10.556Z,5.73
2023-01-11T14:00:19.208Z,7.20
2023-01-11T14:15:38.156Z,6.30
2023-01-11T14:31:20.456Z,9.60
2023-01-11T14:46:40.265Z,8.27
2023-01-11T15:02:04.256Z,10.02
2023-01-11T15:17:25.030Z,8.77
2023-01-11T15:32:30.745Z,9.27
2023-01-11T15:48:00.306Z,10.60
2023-01-11T16:03:36.826Z,9.43
2023-01-11T16:18:51.626Z,9.70
2023-01-11T16:33:54.209Z,8.93
2023-01-11T16:49:10.160Z,9.35
2023-01-11T17:04:36.558Z,8.50
2023-01-11T17:19:46.696Z,10.68
2023-01-11T17:34:50.877Z,7.43
2023-01-11T17:49:54.509Z,14.55
2023-01-11T18:05:00.092Z,12.25
2023-01-11T18:20:25.082Z,12.52
2023-01-11T18:35:27.120Z,13.13
2023-01-11T18:50:29.321Z,13.98
2023-01-11T19:05:31.772Z,11.05
2023-01-11T19:20:33.727Z,11.85
2023-01-11T19:35:41.084Z,11.68
2023-01-11T19:50:43.265Z,12.18
2023-01-11T20:05:45.178Z,16.23
2023-01-11T20:20:55.679Z,19.05
2023-01-11T20:35:57.836Z,12.75
2023-01-11T20:51:03.565Z,11.50
2023-01-11T21:06:07.851Z,11.73
2023-01-11T21:21:18.682Z,12.00
2023-01-11T21:36:23.651Z,11.45
2023-01-11T21:51:29.850Z,9.68
2023-01-11T22:06:34.489Z,10.10
2023-01-11T22:21:37.854Z,10.50
2023-01-11T22:36:39.885Z,11.10
2023-01-11T22:51:42.923Z,10.35
2023-01-11T23:06:45.151Z,10.02
2023-01-11T23:21:47.662Z,10.55
2023-01-11T23:36:49.583Z,15.65
2023-01-11T23:51:51.820Z,16.90
